Time;durP1;ratioP1;P1;durP2;ratioP2;P2;SDS_P1;SDS_P2;PMS_P1;PMS_P2;Temp;Humidity;BMP_temperature;BMP_pressure;BME280_temperature;BME280_humidity;BME280_pressure;Samples;Min_cycle;Max_cycle;Signal;HPM_P1;HPM_P2
2022/05/11 00:01:13;;;;;;;;;;;;;;;16.93;48.27;93090.25;2059027;69;20058;-72
2022/05/11 00:03:40;;;;;;;;;;;;;;;16.88;48.68;93093.56;2072032;69;20085;-72
2022/05/11 00:06:05;;;;;;;;;;;;;;;16.73;49.49;93092.94;2058801;69;20056;-73
2022/05/11 00:08:31;;;;;;;;;;;;;;;16.75;48.56;93092.28;2071967;69;20054;-71
2022/05/11 00:10:56;;;;;;;;;;;;;;;16.76;49.07;93102.28;2058874;69;20496;-73
2022/05/11 00:13:22;;;;;;;;;;;;;;;16.68;48.73;93090.53;2058414;69;20669;-70
2022/05/11 00:15:47;;;;;;;;;;;;;;;16.96;46.98;93088.97;2058752;69;20073;-71
2022/05/11 00:18:13;;;;;;;;;;;;;;;16.86;47.28;93090.63;2058702;69;20485;-70
2022/05/11 00:20:39;;;;;;;;;;;;;;;16.77;48.16;93092.41;2058679;69;20119;-69
2022/05/11 00:23:04;;;;;;;;;;;;;;;16.74;48.09;93094.41;2071934;69;20054;-68
2022/05/11 00:25:30;;;;;;;;;;;;;;;16.61;48.78;93089.53;2072008;69;20402;-73
2022/05/11 00:27:56;;;;;;;;;;;;;;;16.62;49.22;93093.09;2058427;69;20050;-71
2022/05/11 00:30:23;;;;;;;;;;;;;;;16.63;48.78;93094.56;2058912;69;20046;-72
2022/05/11 00:32:53;;;;;;;;;;;;;;;16.69;47.51;93087.03;2058884;69;20155;-71
2022/05/11 00:35:18;;;;;;;;;;;;;;;16.62;48.17;93096.66;2058819;69;20095;-71
2022/05/11 00:37:44;;;;;;;;;;;;;;;16.41;49.09;93094.31;2058740;69;20054;-68
2022/05/11 00:40:10;;;;;;;;;;;;;;;16.64;47.65;93098.88;2058674;69;20054;-70
2022/05/11 00:42:35;;;;;;;;;;;;;;;16.58;48.51;93093.63;2058796;69;20046;-69
2022/05/11 00:54:44;;;;;;;;;;;;;;;16.41;47.49;93091.47;2058935;69;20053;-68
2022/05/11 01:00:38;;;;;;;;;;;;;;;16.44;48.06;93098.69;2058704;69;20089;-70
2022/05/11 01:03:06;;;;;;;;;;;;;;;16.38;47.69;93098.41;2058594;69;20050;-72
2022/05/11 01:05:31;;;;;;;;;;;;;;;16.35;48.38;93094.00;2058917;69;20092;-72
2022/05/11 01:11:26;;;;;;;;;;;;;;;16.31;47.91;93090.97;2058731;69;20053;-76
2022/05/11 01:13:52;;;;;;;;;;;;;;;16.01;50.12;93093.88;2058838;69;20053;-73
2022/05/11 01:16:17;;;;;;;;;;;;;;;16.17;48.67;93096.75;2058815;69;20066;-72
2022/05/11 01:18:44;;;;;;;;;;;;;;;16.22;48.39;93098.41;2058475;69;20061;-74
2022/05/11 01:21:10;;;;;;;;;;;;;;;16.15;48.92;93086.03;2058716;69;20211;-74
2022/05/11 01:23:38;;;;;;;;;;;;;;;16.24;48.27;93089.97;2058790;69;20133;-70
2022/05/11 01:26:04;;;;;;;;;;;;;;;16.31;48.18;93088.13;2059028;69;20046;-78
2022/05/11 01:28:30;;;;;;;;;;;;;;;16.19;48.68;93088.31;2058829;69;20057;-73
2022/05/11 01:34:30;;;;;;;;;;;;;;;16.04;48.74;93094.72;2056610;69;20057;-73
2022/05/11 01:36:56;;;;;;;;;;;;;;;16.06;47.85;93094.81;2058980;69;20042;-71
2022/05/11 01:39:21;;;;;;;;;;;;;;;16.11;48.00;93093.63;2071681;69;20089;-69
2022/05/11 01:41:51;;;;;;;;;;;;;;;16.24;47.22;93092.81;2058604;69;20176;-74
2022/05/11 01:44:17;;;;;;;;;;;;;;;16.12;47.82;93100.78;2058850;69;20052;-74
2022/05/11 01:46:45;;;;;;;;;;;;;;;16.04;48.15;93092.63;2058340;69;20114;-72
2022/05/11 01:49:11;;;;;;;;;;;;;;;16.17;46.61;93097.50;2058396;69;20089;-73
2022/05/11 01:51:37;;;;;;;;;;;;;;;15.93;48.73;93102.75;2058249;69;20216;-70
2022/05/11 01:54:03;;;;;;;;;;;;;;;15.90;48.19;93094.78;2068917;69;20061;-73
2022/05/11 01:56:28;;;;;;;;;;;;;;;15.80;48.65;93105.66;2058680;69;20174;-74
2022/05/11 01:58:54;;;;;;;;;;;;;;;15.75;48.61;93104.72;2058783;69;20050;-73
2022/05/11 02:01:21;;;;;;;;;;;;;;;15.82;47.92;93109.31;2058705;69;20498;-72
2022/05/11 02:03:46;;;;;;;;;;;;;;;15.91;47.89;93108.34;2071831;69;20540;-71
2022/05/11 02:08:56;;;;;;;;;;;;;;;15.77;48.27;93106.94;2059461;69;20053;-71
2022/05/11 02:11:22;;;;;;;;;;;;;;;15.67;49.09;93105.06;2059360;69;20046;-71
2022/05/11 02:13:48;;;;;;;;;;;;;;;15.40;50.79;93094.50;2072250;69;20070;-71
2022/05/11 02:16:14;;;;;;;;;;;;;;;15.36;50.75;93094.31;2059180;69;20046;-71
2022/05/11 02:18:39;;;;;;;;;;;;;;;15.47;50.68;93101.94;2059074;69;20078;-71
2022/05/11 02:21:07;;;;;;;;;;;;;;;15.13;51.95;93100.25;2059382;69;20118;-71
2022/05/11 02:23:33;;;;;;;;;;;;;;;15.09;52.12;93100.03;2059184;69;20107;-71
2022/05/11 02:25:58;;;;;;;;;;;;;;;15.02;51.73;93096.16;2059271;69;20506;-72
2022/05/11 02:28:24;;;;;;;;;;;;;;;15.13;50.77;93097.41;2059122;69;20092;-72
2022/05/11 02:30:51;;;;;;;;;;;;;;;14.84;52.41;93101.63;2059218;69;20058;-72
2022/05/11 02:40:39;;;;;;;;;;;;;;;14.80;51.72;93090.09;2059261;69;20081;-71
2022/05/11 02:46:33;;;;;;;;;;;;;;;14.34;54.52;93097.59;2058968;69;20054;-73
2022/05/11 02:52:27;;;;;;;;;;;;;;;14.54;52.55;93080.22;2059248;69;20041;-71
2022/05/11 02:54:52;;;;;;;;;;;;;;;14.53;53.63;93087.25;2072030;69;20054;-72
2022/05/11 02:57:18;;;;;;;;;;;;;;;14.62;52.86;93080.66;2059148;69;20073;-72
2022/05/11 02:59:44;;;;;;;;;;;;;;;14.42;54.14;93085.94;2059224;69;20053;-73
2022/05/11 03:02:09;;;;;;;;;;;;;;;14.33;53.31;93090.44;2059114;69;20149;-72
2022/05/11 03:04:35;;;;;;;;;;;;;;;14.38;53.39;93094.22;2058978;69;20203;-71
2022/05/11 03:07:00;;;;;;;;;;;;;;;14.23;54.25;93090.63;2058904;69;20058;-72
2022/05/11 03:09:26;;;;;;;;;;;;;;;14.22;54.43;93096.94;2059132;69;20045;-71
2022/05/11 03:11:51;;;;;;;;;;;;;;;14.36;53.84;93094.13;2059010;69;20085;-71
2022/05/11 03:14:17;;;;;;;;;;;;;;;14.21;54.26;93090.53;2059196;69;20106;-71
2022/05/11 03:16:43;;;;;;;;;;;;;;;14.32;54.08;93100.31;2058975;69;20114;-71
2022/05/11 03:19:08;;;;;;;;;;;;;;;14.70;50.01;93098.78;2058742;69;20074;-71
2022/05/11 03:21:35;;;;;;;;;;;;;;;14.57;51.44;93108.03;2071845;69;20138;-72
2022/05/11 03:24:00;;;;;;;;;;;;;;;14.55;51.95;93105.09;2058894;69;20494;-71
2022/05/11 03:26:26;;;;;;;;;;;;;;;14.59;51.61;93099.63;2059104;69;20116;-71
2022/05/11 03:38:33;;;;;;;;;;;;;;;14.36;53.36;93099.78;2057307;69;20433;-72
2022/05/11 03:44:28;;;;;;;;;;;;;;;14.14;53.64;93102.16;2059115;69;20133;-72
2022/05/11 03:46:53;;;;;;;;;;;;;;;13.97;54.56;93106.19;2059103;69;20497;-71
2022/05/11 03:49:19;;;;;;;;;;;;;;;14.09;53.58;93098.38;2058960;69;20050;-71
2022/05/11 03:51:44;;;;;;;;;;;;;;;14.19;54.33;93103.84;2059012;69;20503;-72
2022/05/11 03:54:10;;;;;;;;;;;;;;;13.79;54.80;93114.44;2058888;69;20469;-72
2022/05/11 03:56:35;;;;;;;;;;;;;;;13.89;54.40;93109.34;2058658;69;20093;-71
2022/05/11 03:59:01;;;;;;;;;;;;;;;13.82;54.98;93109.63;2058758;69;20046;-71
2022/05/11 04:01:26;;;;;;;;;;;;;;;13.77;55.85;93116.41;2058795;69;20145;-71
2022/05/11 04:03:52;;;;;;;;;;;;;;;13.84;55.17;93107.66;2058755;69;20410;-70
2022/05/11 04:06:17;;;;;;;;;;;;;;;13.88;55.75;93109.94;2058928;69;20070;-71
2022/05/11 04:12:11;;;;;;;;;;;;;;;14.15;55.26;93120.63;2058907;69;20049;-71
2022/05/11 04:14:36;;;;;;;;;;;;;;;14.10;54.64;93108.34;2058993;69;20046;-72
2022/05/11 04:17:02;;;;;;;;;;;;;;;14.10;55.31;93102.66;2071710;69;20440;-70
2022/05/11 04:19:28;;;;;;;;;;;;;;;14.10;55.36;93107.59;2058891;69;20076;-71
2022/05/11 04:25:23;;;;;;;;;;;;;;;14.05;55.60;93112.31;2058893;69;20489;-71
2022/05/11 04:27:49;;;;;;;;;;;;;;;14.20;53.62;93111.72;2058888;69;20081;-71
2022/05/11 04:30:15;;;;;;;;;;;;;;;13.71;56.95;93117.56;2058841;69;20112;-72
2022/05/11 04:32:41;;;;;;;;;;;;;;;13.74;57.72;93121.22;2058924;69;20053;-71
2022/05/11 04:35:07;;;;;;;;;;;;;;;13.53;58.49;93110.13;2058970;69;20129;-71
2022/05/11 04:37:32;;;;;;;;;;;;;;;13.89;55.90;93108.59;2058916;69;20057;-71
2022/05/11 04:39:58;;;;;;;;;;;;;;;14.03;56.12;93112.22;2058928;69;20103;-72
2022/05/11 04:42:24;;;;;;;;;;;;;;;13.92;56.78;93108.06;2058927;69;20053;-71
2022/05/11 04:44:49;;;;;;;;;;;;;;;13.86;57.09;93112.69;2058875;69;20113;-71
2022/05/11 04:47:16;;;;;;;;;;;;;;;14.07;56.50;93123.03;2058978;69;20459;-71
2022/05/11 04:49:42;;;;;;;;;;;;;;;14.17;55.66;93112.97;2058799;69;20152;-71
2022/05/11 04:52:15;;;;;;;;;;;;;;;14.21;55.92;93110.38;2058887;69;20474;-71
2022/05/11 04:58:09;;;;;;;;;;;;;;;14.10;55.91;93122.50;2058774;69;20061;-71
2022/05/11 05:00:35;;;;;;;;;;;;;;;14.28;55.40;93119.91;2058810;69;20046;-72
2022/05/11 05:03:04;;;;;;;;;;;;;;;14.14;56.83;93122.72;2058785;69;20121;-71
2022/05/11 05:05:30;;;;;;;;;;;;;;;13.91;57.19;93125.69;2071952;69;20589;-71
2022/05/11 05:07:55;;;;;;;;;;;;;;;13.70;57.81;93130.22;2058892;69;20145;-71
2022/05/11 05:10:21;;;;;;;;;;;;;;;14.00;58.12;93124.78;2058840;69;20049;-74
2022/05/11 05:12:46;;;;;;;;;;;;;;;13.99;57.39;93131.78;2059104;69;20431;-74
2022/05/11 05:15:13;;;;;;;;;;;;;;;14.24;56.55;93137.41;2058894;69;20056;-73
2022/05/11 05:17:38;;;;;;;;;;;;;;;14.06;57.95;93132.84;2071859;69;20527;-72
2022/05/11 05:20:07;;;;;;;;;;;;;;;14.26;57.52;93124.75;2059217;69;20065;-75
2022/05/11 05:22:33;;;;;;;;;;;;;;;14.23;57.86;93135.22;2058922;69;20050;-73
2022/05/11 05:24:58;;;;;;;;;;;;;;;14.24;56.52;93133.84;2059017;69;20574;-74
2022/05/11 05:27:24;;;;;;;;;;;;;;;14.05;58.11;93134.94;2058882;69;20081;-73
2022/05/11 05:32:34;;;;;;;;;;;;;;;14.02;55.97;93138.28;2058926;69;20050;-74
2022/05/11 05:35:00;;;;;;;;;;;;;;;14.05;57.61;93139.88;2058928;69;20046;-72
2022/05/11 05:37:26;;;;;;;;;;;;;;;14.06;58.81;93135.69;2058832;69;20061;-72
2022/05/11 05:39:51;;;;;;;;;;;;;;;14.03;58.47;93134.84;2058864;69;20046;-72
2022/05/11 05:42:21;;;;;;;;;;;;;;;14.05;59.08;93139.88;2058784;69;20046;-74
2022/05/11 05:44:46;;;;;;;;;;;;;;;13.95;60.21;93137.22;2058853;69;20057;-73
2022/05/11 05:47:13;;;;;;;;;;;;;;;14.13;58.25;93132.56;2058940;69;20481;-73
2022/05/11 05:49:39;;;;;;;;;;;;;;;13.98;59.23;93136.00;2058758;69;20074;-73
2022/05/11 05:52:07;;;;;;;;;;;;;;;14.19;57.43;93135.00;2059052;69;20038;-72
2022/05/11 05:54:44;;;;;;;;;;;;;;;14.26;57.26;93138.91;2071620;69;20086;-73
2022/05/11 05:57:09;;;;;;;;;;;;;;;14.17;58.11;93140.56;2058912;69;20049;-74
2022/05/11 05:59:35;;;;;;;;;;;;;;;14.28;58.04;93141.84;2058810;69;20053;-72
2022/05/11 06:02:00;;;;;;;;;;;;;;;14.31;57.85;93138.50;2058811;69;20050;-72
2022/05/11 06:04:26;;;;;;;;;;;;;;;14.37;57.65;93135.97;2058754;69;20076;-73
2022/05/11 06:06:51;;;;;;;;;;;;;;;14.46;56.77;93132.22;2058715;69;20042;-73
2022/05/11 06:09:17;;;;;;;;;;;;;;;14.51;56.13;93136.03;2058872;69;20111;-73
2022/05/11 06:11:43;;;;;;;;;;;;;;;14.42;58.63;93137.66;2059024;69;20078;-72
2022/05/11 06:14:08;;;;;;;;;;;;;;;14.60;56.35;93123.03;2058962;69;20070;-73
2022/05/11 06:16:35;;;;;;;;;;;;;;;14.64;57.19;93128.91;2059140;69;20510;-72
2022/05/11 06:19:00;;;;;;;;;;;;;;;14.71;56.69;93125.78;2059011;69;20090;-72
2022/05/11 06:21:26;;;;;;;;;;;;;;;14.75;56.58;93116.72;2059287;69;20528;-72
2022/05/11 06:23:51;;;;;;;;;;;;;;;14.83;56.22;93122.81;2059220;69;20042;-72
2022/05/11 06:26:17;;;;;;;;;;;;;;;14.92;56.26;93126.81;2059113;69;20050;-72
2022/05/11 06:28:43;;;;;;;;;;;;;;;15.09;56.50;93125.56;2059137;69;20110;-72
2022/05/11 06:31:09;;;;;;;;;;;;;;;15.15;54.87;93120.91;2059404;69;20073;-73
2022/05/11 06:33:35;;;;;;;;;;;;;;;15.28;54.33;93113.75;2059138;69;20061;-73
2022/05/11 06:36:05;;;;;;;;;;;;;;;15.49;51.61;93102.06;2072008;69;20057;-71
2022/05/11 06:38:30;;;;;;;;;;;;;;;15.57;52.02;93118.00;2058772;69;20042;-74
2022/05/11 06:40:56;;;;;;;;;;;;;;;15.69;52.65;93116.53;2058892;69;20057;-74
2022/05/11 06:43:21;;;;;;;;;;;;;;;15.69;52.55;93119.34;2059166;69;20050;-74
2022/05/11 06:45:47;;;;;;;;;;;;;;;15.85;52.32;93113.75;2058958;69;20046;-74
2022/05/11 06:48:14;;;;;;;;;;;;;;;15.95;50.58;93110.66;2058812;69;20054;-76
2022/05/11 06:50:40;;;;;;;;;;;;;;;16.06;50.38;93111.84;2058909;69;20410;-75
2022/05/11 06:53:10;;;;;;;;;;;;;;;16.12;50.11;93112.84;2072151;69;20057;-73
2022/05/11 07:01:10;;;;;;;;;;;;;;;16.41;51.01;93109.25;2059265;69;20054;-73
2022/05/11 07:03:36;;;;;;;;;;;;;;;16.48;51.39;93096.75;2059125;69;20056;-75
2022/05/11 07:06:01;;;;;;;;;;;;;;;16.58;51.54;93098.59;2059269;69;20050;-72
2022/05/11 07:08:37;;;;;;;;;;;;;;;16.73;51.08;93097.91;2059190;69;20113;-73
2022/05/11 07:13:47;;;;;;;;;;;;;;;16.96;51.18;93093.94;2059192;69;20057;-72
2022/05/11 07:16:13;;;;;;;;;;;;;;;17.08;51.18;93091.59;2059158;69;20123;-73
2022/05/11 07:18:39;;;;;;;;;;;;;;;17.24;51.44;93088.72;2059040;69;20077;-73
2022/05/11 07:21:05;;;;;;;;;;;;;;;17.32;51.42;93083.38;2059250;69;20042;-74
2022/05/11 07:23:30;;;;;;;;;;;;;;;17.43;50.61;93082.41;2058868;69;20574;-72
2022/05/11 07:29:24;;;;;;;;;;;;;;;18.02;52.21;93081.97;2059234;69;20070;-74
2022/05/11 07:31:50;;;;;;;;;;;;;;;18.29;51.02;93072.31;2059244;69;20074;-73
2022/05/11 07:34:16;;;;;;;;;;;;;;;18.66;51.42;93081.50;2059062;69;20046;-76
2022/05/11 07:36:41;;;;;;;;;;;;;;;18.94;48.25;93073.28;2059163;69;20050;-73
2022/05/11 07:39:08;;;;;;;;;;;;;;;19.34;47.33;93062.56;2058885;69;20046;-73
2022/05/11 07:41:34;;;;;;;;;;;;;;;19.66;46.76;93065.06;2059152;69;20050;-73
2022/05/11 07:43:59;;;;;;;;;;;;;;;20.16;44.07;93063.09;2059137;69;20335;-73
2022/05/11 07:46:26;;;;;;;;;;;;;;;20.37;41.73;93063.69;2058817;69;20163;-74
2022/05/11 07:48:52;;;;;;;;;;;;;;;20.43;39.85;93064.59;2059033;69;20046;-73
2022/05/11 07:51:17;;;;;;;;;;;;;;;20.76;39.34;93054.88;2059105;69;20049;-74
2022/05/11 07:53:44;;;;;;;;;;;;;;;21.00;39.53;93056.97;2059228;69;20533;-74
2022/05/11 08:01:37;;;;;;;;;;;;;;;21.83;39.94;93047.69;2059104;69;20053;-74
2022/05/11 08:04:03;;;;;;;;;;;;;;;22.45;36.97;93046.25;2058845;69;20413;-73
2022/05/11 08:06:28;;;;;;;;;;;;;;;22.72;37.85;93047.56;2059036;69;20167;-73
2022/05/11 08:08:53;;;;;;;;;;;;;;;22.55;35.90;93046.50;2059047;69;20050;-72
2022/05/11 08:11:19;;;;;;;;;;;;;;;23.01;34.89;93052.53;2059012;69;20086;-74
2022/05/11 08:13:44;;;;;;;;;;;;;;;23.04;35.65;93045.38;2059194;69;20062;-77
2022/05/11 08:16:10;;;;;;;;;;;;;;;23.41;34.74;93043.19;2059167;69;20397;-72
2022/05/11 08:18:35;;;;;;;;;;;;;;;24.49;34.54;93036.41;2071924;69;20042;-72
2022/05/11 08:21:01;;;;;;;;;;;;;;;24.13;33.38;93039.44;2059069;69;20131;-73
2022/05/11 08:23:28;;;;;;;;;;;;;;;24.53;31.71;93036.47;2058625;69;20050;-72
2022/05/11 08:25:57;;;;;;;;;;;;;;;24.49;33.38;93033.53;2059065;69;20074;-73
2022/05/11 08:28:24;;;;;;;;;;;;;;;24.80;32.28;93036.81;2059048;69;20046;-75
2022/05/11 08:33:36;;;;;;;;;;;;;;;24.56;31.53;93023.56;2059015;69;20046;-75
2022/05/11 08:36:06;;;;;;;;;;;;;;;24.88;32.38;93025.41;2058552;69;20058;-74
2022/05/11 08:38:34;;;;;;;;;;;;;;;25.42;32.94;93015.94;2058884;69;20066;-75
2022/05/11 08:41:04;;;;;;;;;;;;;;;24.67;29.87;93020.81;2058998;69;20046;-77
2022/05/11 08:43:31;;;;;;;;;;;;;;;24.60;29.50;93011.34;2059115;69;20062;-77
2022/05/11 08:46:03;;;;;;;;;;;;;;;25.49;30.11;93008.81;2059211;69;20115;-75
2022/05/11 08:48:31;;;;;;;;;;;;;;;26.11;29.92;93010.09;2058874;69;20098;-73
2022/05/11 08:50:57;;;;;;;;;;;;;;;26.27;32.30;93006.63;2058973;69;20053;-74
2022/05/11 08:53:31;;;;;;;;;;;;;;;26.21;30.66;93006.59;2059158;69;20046;-74
2022/05/11 08:55:58;;;;;;;;;;;;;;;27.07;29.72;93010.69;2058932;69;20112;-71
2022/05/11 08:58:30;;;;;;;;;;;;;;;26.99;29.03;93004.88;2059024;69;20126;-73
2022/05/11 09:00:56;;;;;;;;;;;;;;;26.67;29.82;93005.47;2059195;69;20050;-73
2022/05/11 09:03:31;;;;;;;;;;;;;;;27.11;27.18;93002.78;2058957;69;20119;-72
2022/05/11 09:05:57;;;;;;;;;;;;;;;26.78;25.88;92996.13;2059131;69;20054;-73
2022/05/11 09:08:23;;;;;;;;;;;;;;;27.59;26.85;92995.69;2059166;69;20057;-72
2022/05/11 09:14:26;;;;;;;;;;;;;;;28.36;26.16;92986.34;2058586;69;20053;-73
2022/05/11 09:20:23;;;;;;;;;;;;;;;28.32;24.71;92983.44;2058821;69;20115;-74
2022/05/11 09:22:59;;;;;;;;;;;;;;;28.79;26.39;92985.53;2058817;69;20141;-74
2022/05/11 09:25:33;;;;;;;;;;;;;;;29.55;24.35;92975.09;2058653;69;20090;-75
2022/05/11 09:28:13;;;;;;;;;;;;;;;27.99;24.62;92973.31;2058687;69;20470;-78
2022/05/11 09:30:41;;;;;;;;;;;;;;;28.32;26.65;92968.97;2058897;69;20484;-75
2022/05/11 09:33:22;;;;;;;;;;;;;;;28.65;24.91;92971.81;2068996;69;20086;-78
2022/05/11 09:35:47;;;;;;;;;;;;;;;28.18;25.38;92974.03;2058643;69;20061;-78
2022/05/11 09:38:19;;;;;;;;;;;;;;;29.17;26.09;92972.38;2058700;69;20065;-74
2022/05/11 09:41:00;;;;;;;;;;;;;;;29.09;22.81;92964.41;2058843;69;20141;-73
2022/05/11 09:43:28;;;;;;;;;;;;;;;29.11;24.45;92967.31;2058818;69;20577;-74
2022/05/11 09:45:54;;;;;;;;;;;;;;;29.73;23.12;92961.91;2058854;69;20107;-73
2022/05/11 09:48:23;;;;;;;;;;;;;;;30.22;24.04;92959.38;2069004;69;20050;-71
2022/05/11 09:50:55;;;;;;;;;;;;;;;30.16;23.98;92956.53;2058862;69;20065;-72
2022/05/11 09:53:36;;;;;;;;;;;;;;;30.66;23.79;92948.06;2058241;69;20053;-71
2022/05/11 09:56:19;;;;;;;;;;;;;;;29.83;23.63;92950.25;2058709;69;20054;-74
2022/05/11 09:58:45;;;;;;;;;;;;;;;29.86;22.39;92942.94;2058759;69;20054;-72
2022/05/11 10:01:13;;;;;;;;;;;;;;;29.85;24.63;92936.44;2058750;69;20119;-72
2022/05/11 10:03:54;;;;;;;;;;;;;;;30.25;24.91;92934.66;2058601;69;20129;-71
2022/05/11 10:06:20;;;;;;;;;;;;;;;30.44;22.75;92935.22;2058602;69;20070;-72
2022/05/11 10:08:48;;;;;;;;;;;;;;;30.50;24.03;92935.13;2058581;69;20046;-73
2022/05/11 10:11:22;;;;;;;;;;;;;;;31.87;22.16;92933.44;2058545;69;20058;-70
2022/05/11 10:21:49;;;;;;;;;;;;;;;32.53;22.48;92930.88;2058616;69;20093;-75
2022/05/11 10:22:22;;;;;;;;;;;;;;;32.44;20.86;92915.03;2058467;69;20053;-72
2022/05/11 10:24:50;;;;;;;;;;;;;;;32.61;19.88;92915.44;2058779;69;20082;-74
2022/05/11 10:27:25;;;;;;;;;;;;;;;33.37;18.38;92915.38;2058844;69;20437;-73
2022/05/11 10:30:03;;;;;;;;;;;;;;;33.27;18.78;92906.13;2059219;69;20073;-73
2022/05/11 10:32:31;;;;;;;;;;;;;;;33.23;18.87;92900.38;2059006;69;20143;-76
2022/05/11 10:35:15;;;;;;;;;;;;;;;33.69;18.80;92892.78;2058987;69;20046;-73
2022/05/11 10:37:53;;;;;;;;;;;;;;;33.88;18.31;92890.88;2059199;69;20050;-72
2022/05/11 10:40:25;;;;;;;;;;;;;;;34.72;19.50;92894.59;2059163;69;20046;-73
2022/05/11 10:42:50;;;;;;;;;;;;;;;35.95;18.82;92891.75;2059068;69;20493;-74
2022/05/11 10:45:26;;;;;;;;;;;;;;;36.45;17.82;92885.72;2059167;69;20089;-74
2022/05/11 10:47:55;;;;;;;;;;;;;;;36.70;17.82;92879.00;2059061;69;20056;-71
2022/05/11 10:50:28;;;;;;;;;;;;;;;37.36;17.87;92887.59;2059172;69;20065;-72
2022/05/11 10:53:00;;;;;;;;;;;;;;;37.37;16.11;92868.47;2059261;69;20046;-75
2022/05/11 10:55:26;;;;;;;;;;;;;;;38.27;14.95;92873.75;2072217;69;20101;-79
2022/05/11 10:58:05;;;;;;;;;;;;;;;39.67;14.04;92871.34;2059117;69;20141;-77
2022/05/11 11:00:32;;;;;;;;;;;;;;;41.66;13.18;92866.41;2059184;69;20155;-75
2022/05/11 11:03:16;;;;;;;;;;;;;;;41.99;11.85;92861.66;2059108;69;20049;-75
2022/05/11 11:07:11;;;;;;;;;;;;;;;43.97;12.26;92865.31;2059107;69;20053;-75
2022/05/11 11:08:42;;;;;;;;;;;;;;;44.63;11.15;92859.53;2059262;69;20115;-74
2022/05/11 11:11:20;;;;;;;;;;;;;;;43.83;11.95;92852.13;2059113;69;20050;-72
2022/05/11 11:13:51;;;;;;;;;;;;;;;45.71;10.89;92845.41;2059159;69;20257;-75
2022/05/11 11:16:16;;;;;;;;;;;;;;;43.44;10.60;92844.25;2059121;69;20058;-76
2022/05/11 11:18:45;;;;;;;;;;;;;;;42.59;9.84;92838.97;2058467;69;20481;-74
2022/05/11 11:21:12;;;;;;;;;;;;;;;45.97;10.42;92839.88;2058505;69;20054;-75
2022/05/11 11:23:38;;;;;;;;;;;;;;;47.70;8.11;92846.19;2059223;69;20157;-76
2022/05/11 11:26:09;;;;;;;;;;;;;;;47.63;9.88;92834.03;2058820;69;20057;-77
2022/05/11 11:28:41;;;;;;;;;;;;;;;48.62;8.24;92833.50;2058803;69;20486;-76
2022/05/11 11:31:09;;;;;;;;;;;;;;;47.24;7.93;92828.13;2059193;69;20052;-75
2022/05/11 11:33:37;;;;;;;;;;;;;;;50.61;7.51;92820.66;2059085;69;20089;-72
2022/05/11 11:36:22;;;;;;;;;;;;;;;49.75;7.99;92818.63;2059077;69;20058;-74
2022/05/11 11:38:49;;;;;;;;;;;;;;;50.88;7.79;92818.22;2059117;69;20145;-72
2022/05/11 11:41:20;;;;;;;;;;;;;;;51.26;7.44;92802.59;2072025;69;20046;-72
2022/05/11 11:43:54;;;;;;;;;;;;;;;52.20;7.57;92805.59;2058821;69;20153;-71
2022/05/11 11:46:44;;;;;;;;;;;;;;;52.40;6.11;92808.88;2071987;69;20497;-71
2022/05/11 11:49:11;;;;;;;;;;;;;;;48.70;6.48;92790.25;2059123;69;20054;-72
2022/05/11 11:51:53;;;;;;;;;;;;;;;46.92;7.68;92780.69;2059034;69;20075;-74
2022/05/11 11:54:27;;;;;;;;;;;;;;;48.25;7.58;92782.78;2059015;69;20072;-74
2022/05/11 11:56:54;;;;;;;;;;;;;;;46.47;8.36;92772.19;2059042;69;20056;-73
2022/05/11 11:59:23;;;;;;;;;;;;;;;48.29;8.16;92772.75;2058974;69;20149;-75
2022/05/11 12:01:49;;;;;;;;;;;;;;;46.52;8.97;92767.34;2059090;69;20088;-76
2022/05/11 12:04:30;;;;;;;;;;;;;;;46.51;7.95;92759.25;2059076;69;20486;-79
2022/05/11 12:15:25;;;;;;;;;;;;;;;51.70;7.62;92754.22;2059086;69;20061;-77
2022/05/11 12:17:51;;;;;;;;;;;;;;;53.14;6.46;92760.09;2058871;69;20054;-75
2022/05/11 12:20:17;;;;;;;;;;;;;;;51.21;6.08;92749.94;2058939;69;20054;-73
2022/05/11 12:22:48;;;;;;;;;;;;;;;50.40;6.88;92746.22;2058799;69;20428;-71
2022/05/11 12:25:16;;;;;;;;;;;;;;;49.41;6.29;92736.34;2058971;69;20066;-77
2022/05/11 12:27:42;;;;;;;;;;;;;;;49.82;7.66;92726.78;2058748;69;20062;-75
2022/05/11 12:30:15;;;;;;;;;;;;;;;49.43;6.79;92724.19;2071604;69;20061;-72
2022/05/11 12:32:48;;;;;;;;;;;;;;;47.60;7.71;92720.16;2058702;69;20092;-74
2022/05/11 12:35:19;;;;;;;;;;;;;;;46.70;8.06;92713.94;2058876;69;20078;-72
2022/05/11 12:37:53;;;;;;;;;;;;;;;47.22;8.65;92706.09;2058943;69;20050;-73
2022/05/11 12:40:25;;;;;;;;;;;;;;;49.12;7.14;92714.22;2058906;69;20077;-74
2022/05/11 12:42:52;;;;;;;;;;;;;;;49.67;8.38;92708.66;2058772;69;20057;-77
2022/05/11 12:45:33;;;;;;;;;;;;;;;52.09;6.65;92712.81;2058946;69;20049;-75
2022/05/11 12:48:02;;;;;;;;;;;;;;;53.00;6.09;92702.16;2058697;69;20090;-73
2022/05/11 12:50:33;;;;;;;;;;;;;;;52.31;6.22;92700.88;2071579;69;20080;-75
2022/05/11 12:53:04;;;;;;;;;;;;;;;50.48;6.22;92689.28;2058951;69;20474;-74
2022/05/11 12:55:33;;;;;;;;;;;;;;;49.49;6.28;92687.81;2071745;69;20080;-71
2022/05/11 12:57:59;;;;;;;;;;;;;;;49.71;7.81;92679.09;2058700;69;20046;-74
2022/05/11 13:00:26;;;;;;;;;;;;;;;51.58;6.10;92687.13;2058947;69;20066;-73
2022/05/11 13:02:51;;;;;;;;;;;;;;;49.35;6.97;92677.09;2058801;69;20054;-72
2022/05/11 13:05:19;;;;;;;;;;;;;;;47.47;7.43;92675.06;2059051;69;20115;-74
2022/05/11 13:07:45;;;;;;;;;;;;;;;46.86;8.71;92659.75;2072063;69;20546;-75
2022/05/11 13:10:37;;;;;;;;;;;;;;;47.03;9.15;92655.50;2058947;69;20054;-71
2022/05/11 13:13:07;;;;;;;;;;;;;;;42.62;10.54;92639.78;2058296;69;20050;-75
2022/05/11 13:15:35;;;;;;;;;;;;;;;42.23;12.35;92635.53;2059021;69;20060;-72
2022/05/11 13:18:00;;;;;;;;;;;;;;;40.92;11.40;92623.91;2058648;69;20086;-72
2022/05/11 13:20:27;;;;;;;;;;;;;;;40.30;13.06;92618.38;2058827;69;20089;-72
2022/05/11 13:22:54;;;;;;;;;;;;;;;39.59;13.30;92616.88;2058891;69;20223;-72
2022/05/11 13:25:37;;;;;;;;;;;;;;;39.59;13.40;92619.13;2058899;69;20161;-76
2022/05/11 13:28:22;;;;;;;;;;;;;;;40.17;13.07;92608.06;2058964;69;20042;-77
2022/05/11 13:34:30;;;;;;;;;;;;;;;39.06;14.30;92592.28;2058512;69;20049;-77
2022/05/11 13:36:56;;;;;;;;;;;;;;;37.49;13.72;92582.53;2058790;69;20225;-74
2022/05/11 13:39:25;;;;;;;;;;;;;;;37.93;15.77;92576.22;2058798;69;20054;-71
2022/05/11 13:41:53;;;;;;;;;;;;;;;37.25;14.54;92572.53;2072053;69;20065;-70
2022/05/11 13:44:33;;;;;;;;;;;;;;;36.81;15.12;92569.91;2059157;69;20145;-70
2022/05/11 13:49:45;;;;;;;;;;;;;;;36.07;16.29;92562.53;2058857;69;20111;-72
2022/05/11 13:52:29;;;;;;;;;;;;;;;34.27;14.46;92553.97;2058814;69;20145;-70
2022/05/11 13:54:55;;;;;;;;;;;;;;;34.89;14.93;92559.31;2058811;69;20456;-71
2022/05/11 13:57:34;;;;;;;;;;;;;;;34.42;13.78;92556.47;2071879;69;20141;-70
2022/05/11 14:00:10;;;;;;;;;;;;;;;34.50;17.04;92550.34;2058766;69;20449;-72
2022/05/11 14:02:36;;;;;;;;;;;;;;;34.76;17.43;92555.34;2058974;69;20158;-70
2022/05/11 14:05:02;;;;;;;;;;;;;;;34.00;18.55;92545.31;2059275;69;20138;-71
2022/05/11 14:07:28;;;;;;;;;;;;;;;34.03;16.80;92540.09;2059279;69;20042;-70
2022/05/11 14:09:55;;;;;;;;;;;;;;;33.46;18.44;92536.63;2059274;69;20483;-70
2022/05/11 14:12:22;;;;;;;;;;;;;;;34.02;18.63;92533.56;2059245;69;20085;-72
2022/05/11 14:14:48;;;;;;;;;;;;;;;33.68;18.11;92528.72;2072347;69;20094;-70
2022/05/11 14:17:16;;;;;;;;;;;;;;;33.83;17.93;92532.66;2059226;69;20042;-74
2022/05/11 14:19:42;;;;;;;;;;;;;;;33.75;19.33;92524.84;2059148;69;20133;-70
2022/05/11 14:22:08;;;;;;;;;;;;;;;33.72;17.96;92519.84;2072268;69;20508;-77
2022/05/11 14:24:33;;;;;;;;;;;;;;;33.79;18.42;92524.00;2059225;69;20058;-70
2022/05/11 14:26:59;;;;;;;;;;;;;;;33.00;16.03;92515.97;2059252;69;20089;-69
2022/05/11 14:29:25;;;;;;;;;;;;;;;33.19;17.13;92510.38;2059260;69;20045;-73
2022/05/11 14:31:51;;;;;;;;;;;;;;;32.48;16.92;92503.44;2059232;69;20049;-76
2022/05/11 14:34:19;;;;;;;;;;;;;;;32.60;17.37;92506.06;2059132;69;20077;-71
2022/05/11 14:36:45;;;;;;;;;;;;;;;33.04;18.25;92507.13;2059111;69;20139;-71
2022/05/11 14:39:14;;;;;;;;;;;;;;;32.12;18.87;92499.94;2058881;69;20157;-74
2022/05/11 14:41:40;;;;;;;;;;;;;;;32.34;16.48;92501.56;2059313;69;20598;-76
2022/05/11 14:47:33;;;;;;;;;;;;;;;31.70;17.93;92492.84;2059162;69;20115;-71